Grangerland, TX

11:21 AM CDT on May 30, 2015 (GMT -0500)
Crystal Creek Estates | Change Station
CLOSE
Current Station
Personal Weather Station
Location: Conroe, TX
Elevation: 177 ft
Nearby Weather Stations
Active Advisory: Flood Warning, Flash Flood Watch

Elev 177 ft 30.26 °N, 95.35 °W | Updated 2 minutes ago

Partly Cloudy
Partly Cloudy
83.7 °F
Feels Like 98 °F
N
2.7
Wind Variable Wind from SE

Today
High -- | Low -- °F
--% Chance of Precip.
Yesterday
High -- | Low -- °F
Precip. -- in
6:20 AM 8:17 PM
Waxing Gibbous, 91% visible
Pressure 30.05 in
Visibility 10.0 miles
Clouds Few 2300 ft
Scattered Clouds 3900 ft
Heat Index 98 °F
Dew Point 82 °F
Humidity 93%
Rainfall 0.00 in
Snow Depth Not available.
UV 7 out of 12
Pollen 4.10 out of 12
Ozone Good
PM2.5 Good
Flu Activity Local Activity
METAR KCXO 301553Z 30005KT 10SM FEW023 SCT039 27/22 A3006 RMK AO2 RAB10E29 SLP176 P0000 T02720217

More Conditions Fewer Conditions

Pressure 30.05 in
Visibility 10.0 miles
Clouds Few 2300 ft
Scattered Clouds 3900 ft
Heat Index 98 °F
Dew Point 82 °F
Humidity 93%
Rainfall 0.00 in
Snow Depth Not available.
UV 7 out of 12
Pollen 4.10 out of 12
Ozone Good
PM2.5 Good
Flu Activity Local Activity
METAR KCXO 301553Z 30005KT 10SM FEW023 SCT039 27/22 A3006 RMK AO2 RAB10E29 SLP176 P0000 T02720217

More Conditions Fewer Conditions

10-Day Weather Forecast

Almanac

Astronomy

May. 30, 2015 Rise Set
Actual Time 6:20 AM CDT 8:17 PM CDT
Civil Twilight 5:53 AM CDT 8:44 PM CDT
Nautical Twilight 5:21 AM CDT 9:17 PM CDT
Astronomical Twilight 4:46 AM CDT 9:52 PM CDT
Moon 5:37 PM CDT 4:21 AM CDT
Length of Visible Light 14h 50m
Length of Day
13h 56m
Tomorrow will be 0m 49s longer.
Waxing Gibbous, 91% of the Moon is Illuminated
Today
Waxing Gibbous
Jun 2
Full
Jun 9
Last Quarter
Jun 16
New
Jun 24
First Quarter

Today's Extremes

State Highs State Lows

Community

WunderPhotos

Upload Photos

1,825,559 photos uploaded!

Nearby

Air Quality

  Air Quality AQ Index Pollutant
Yesterday Moderate
OZONE
Yesterday Good
PM2.5
Current Good
PM2.5
Current Good
OZONE
Saturday Good
OZONE
Saturday Good
PM10
Sunday Good
OZONE
Sunday Good
PM10
Monday Good
OZONE
Monday Good
PM10
Tuesday Good
OZONE
Tuesday Good
PM10

Snow Depth

Station Depth Elevation
No new snow has been reported.

Earthquake Activity

City Distance Mag. Time & Date
No recent earthquake activity has been reported nearby.
Minimum magnitude displayed is 2.5.

Coastal Water Temperatures

Place Temperature
No Stations Reporting

Nearby Weather Stations